Terminal Aerodrome Forecast
Issued by NWS Chicago, IL

Home | Current Version | Previous Version | Graphics & Text | Print | Product List | Glossary On
Versions: 1 2 3 4 5 6 7 8 9 10 11 12 13 14 15 16 17 18 19 20 21 22 23 24 25 26 27 28 29 30 31 32 33
000
FTUS43 KLOT 122300
TAFRFD
TAF
KRFD 122337Z 1300/1324 35010KT P6SM -RA SCT010 OVC050
     FM130200 33010KT P6SM SCT030
     FM131000 32008KT P6SM SCT200
     FM131800 36006KT P6SM FEW035 SCT250=

USA.gov is the U.S. government's official web portal to all federal, state and local government web resources and services.